Time;durP1;ratioP1;P1;durP2;ratioP2;P2;SDS_P1;SDS_P2;PMS_P1;PMS_P2;Temp;Humidity;BMP_temperature;BMP_pressure;BME280_temperature;BME280_humidity;BME280_pressure;Samples;Min_cycle;Max_cycle;Signal;HPM_P1;HPM_P2
2023/04/02 00:01:00;;;;;;;3.60;1.58;;;;;;;;;;5044141;28;20065;-79
2023/04/02 00:03:58;;;;;;;5.28;1.40;;;;;;;;;;5048862;28;20033;-79
2023/04/02 00:06:38;;;;;;;4.82;1.80;;;;;;;;;;5013292;28;20050;-79
2023/04/02 00:09:20;;;;;;;3.92;1.65;;;;;;;;;;5037711;28;20033;-80
2023/04/02 00:11:53;;;;;;;4.07;1.77;;;;;;;;;;5045289;28;20520;-79
2023/04/02 00:14:35;;;;;;;6.50;1.80;;;;;;;;;;5032518;28;20120;-79
2023/04/02 00:17:07;;;;;;;4.35;1.65;;;;;;;;;;5025031;28;20045;-79
2023/04/02 00:19:51;;;;;;;5.10;2.28;;;;;;;;;;5034343;28;20044;-79
2023/04/02 00:22:27;;;;;;;4.68;1.27;;;;;;;;;;5041317;28;20041;-79
2023/04/02 00:25:00;;;;;;;3.08;1.02;;;;;;;;;;5065852;28;20399;-79
2023/04/02 00:27:33;;;;;;;7.15;1.60;;;;;;;;;;5046751;28;20079;-80
2023/04/02 00:29:58;;;;;;;3.60;1.38;;;;;;;;;;5046889;28;20044;-79
2023/04/02 00:32:32;;;;;;;3.33;1.23;;;;;;;;;;5042841;28;20025;-79
2023/04/02 00:35:26;;;;;;;3.10;1.30;;;;;;;;;;5046435;28;20034;-79
2023/04/02 00:37:58;;;;;;;4.10;1.60;;;;;;;;;;5044495;28;20056;-80
2023/04/02 00:40:31;;;;;;;3.17;1.58;;;;;;;;;;5038513;28;20117;-79
2023/04/02 00:43:05;;;;;;;3.13;1.40;;;;;;;;;;5027494;28;20041;-79
2023/04/02 00:45:38;;;;;;;2.80;1.40;;;;;;;;;;5038160;28;20037;-79
2023/04/02 00:48:39;;;;;;;6.20;1.60;;;;;;;;;;5040172;28;20045;-79
2023/04/02 00:51:21;;;;;;;5.70;2.30;;;;;;;;;;5018321;28;20379;-80
2023/04/02 00:53:54;;;;;;;6.50;2.25;;;;;;;;;;5036531;28;20048;-79
2023/04/02 00:56:36;;;;;;;2.90;2.00;;;;;;;;;;5046662;28;20128;-79
2023/04/02 00:59:08;;;;;;;3.55;1.65;;;;;;;;;;5041984;28;20431;-79
2023/04/02 01:01:41;;;;;;;10.38;2.35;;;;;;;;;;5050181;28;20048;-79
2023/04/02 01:04:33;;;;;;;3.38;2.08;;;;;;;;;;5035458;28;20050;-79
2023/04/02 01:07:09;;;;;;;3.75;2.00;;;;;;;;;;5030193;28;20087;-80
2023/04/02 01:10:12;;;;;;;5.18;2.40;;;;;;;;;;5034645;28;20087;-79
2023/04/02 01:12:57;;;;;;;9.20;2.03;;;;;;;;;;5037358;28;20041;-79
2023/04/02 01:15:49;;;;;;;3.88;2.00;;;;;;;;;;5054969;28;20056;-80
2023/04/02 01:18:40;;;;;;;4.75;2.10;;;;;;;;;;5045294;28;20035;-79
2023/04/02 01:21:30;;;;;;;6.22;2.47;;;;;;;;;;5035582;28;20029;-79
2023/04/02 01:24:08;;;;;;;5.25;2.97;;;;;;;;;;5036979;28;20036;-80
2023/04/02 01:27:02;;;;;;;3.25;1.92;;;;;;;;;;5035701;28;20034;-80
2023/04/02 01:29:36;;;;;;;;;;;;;;;;;;5029172;28;20531;-80
2023/04/02 01:32:11;;;;;;;5.30;1.60;;;;;;;;;;5046062;28;19931;-79
2023/04/02 01:34:49;;;;;;;4.45;2.30;;;;;;;;;;5049127;28;20049;-79
2023/04/02 01:37:51;;;;;;;4.38;2.15;;;;;;;;;;5046990;28;20045;-79
2023/04/02 01:40:33;;;;;;;4.53;2.70;;;;;;;;;;5037863;28;20036;-79
2023/04/02 01:43:16;;;;;;;6.70;2.90;;;;;;;;;;5038999;28;20436;-79
2023/04/02 01:45:49;;;;;;;7.22;2.35;;;;;;;;;;5032944;28;20040;-79
2023/04/02 01:48:26;;;;;;;6.32;2.17;;;;;;;;;;5032682;28;20108;-79
2023/04/02 01:50:59;;;;;;;6.30;2.70;;;;;;;;;;5040633;28;20068;-79
2023/04/02 01:53:33;;;;;;;6.38;3.15;;;;;;;;;;5036425;28;20528;-79
2023/04/02 01:56:06;;;;;;;14.38;3.25;;;;;;;;;;5037264;28;20037;-79
2023/04/02 01:58:32;;;;;;;5.80;3.30;;;;;;;;;;5048477;28;20044;-79
2023/04/02 02:01:08;;;;;;;5.22;2.95;;;;;;;;;;5038383;28;20041;-79
2023/04/02 02:03:41;;;;;;;12.50;3.20;;;;;;;;;;5039039;28;20484;-79
2023/04/02 02:06:17;;;;;;;6.28;2.97;;;;;;;;;;5039549;28;20043;-79
2023/04/02 02:08:57;;;;;;;6.25;3.35;;;;;;;;;;5037740;28;20432;-79
2023/04/02 02:11:31;;;;;;;5.75;3.17;;;;;;;;;;5039544;28;20679;-79
2023/04/02 02:14:16;;;;;;;11.15;3.55;;;;;;;;;;5042279;28;20092;-79
2023/04/02 02:16:48;;;;;;;7.80;3.20;;;;;;;;;;5048376;28;20542;-79
2023/04/02 02:19:24;;;;;;;11.65;3.42;;;;;;;;;;5033228;28;20500;-79
2023/04/02 02:21:58;;;;;;;6.13;3.17;;;;;;;;;;5047848;28;20066;-80
2023/04/02 02:24:32;;;;;;;9.07;3.70;;;;;;;;;;5038746;28;20048;-79
2023/04/02 02:27:25;;;;;;;11.05;3.65;;;;;;;;;;5048516;28;20186;-80
2023/04/02 02:30:03;;;;;;;9.70;4.05;;;;;;;;;;5037521;28;20037;-79
2023/04/02 02:32:36;;;;;;;11.60;3.00;;;;;;;;;;5027611;28;20041;-79
2023/04/02 02:35:19;;;;;;;9.27;3.50;;;;;;;;;;5048821;28;20405;-79
2023/04/02 02:37:54;;;;;;;6.85;3.28;;;;;;;;;;5033567;28;20499;-79
2023/04/02 02:40:33;;;;;;;9.55;3.45;;;;;;;;;;5038875;28;20049;-79
2023/04/02 02:43:09;;;;;;;6.88;3.15;;;;;;;;;;5043286;28;20033;-79
2023/04/02 02:45:42;;;;;;;12.07;4.50;;;;;;;;;;5039372;28;20397;-79
2023/04/02 02:48:19;;;;;;;12.63;4.13;;;;;;;;;;5043533;28;20041;-79
2023/04/02 02:50:53;;;;;;;10.48;3.85;;;;;;;;;;5048228;28;20033;-79
2023/04/02 02:53:30;;;;;;;9.70;4.03;;;;;;;;;;5038349;28;20060;-80
2023/04/02 02:56:02;;;;;;;7.72;3.05;;;;;;;;;;5042112;28;20041;-80
2023/04/02 02:58:36;;;;;;;14.38;4.15;;;;;;;;;;5036120;28;20061;-79
2023/04/02 03:01:09;;;;;;;10.07;3.53;;;;;;;;;;5042751;28;20098;-80
2023/04/02 03:03:34;;;;;;;14.23;4.45;;;;;;;;;;5036059;28;20045;-79
2023/04/02 03:06:12;;;;;;;10.68;3.97;;;;;;;;;;5043858;28;20048;-79
2023/04/02 03:08:55;;;;;;;8.68;3.50;;;;;;;;;;5037043;28;20116;-79
2023/04/02 03:11:34;;;;;;;11.65;3.28;;;;;;;;;;5037985;28;20045;-79
2023/04/02 03:14:33;;;;;;;7.10;3.17;;;;;;;;;;5042619;28;20044;-79
2023/04/02 03:17:16;;;;;;;9.20;2.90;;;;;;;;;;5040453;28;20037;-79
2023/04/02 03:19:54;;;;;;;7.35;2.92;;;;;;;;;;5030373;28;20528;-79
2023/04/02 03:22:36;;;;;;;6.57;3.22;;;;;;;;;;5039195;28;20040;-79
2023/04/02 03:25:16;;;;;;;6.88;3.30;;;;;;;;;;5029021;28;20037;-79
2023/04/02 03:27:51;;;;;;;8.45;3.10;;;;;;;;;;5023309;28;20385;-79
2023/04/02 03:30:29;;;;;;;8.60;3.08;;;;;;;;;;5033474;28;20413;-79
2023/04/02 03:33:17;;;;;;;12.18;3.47;;;;;;;;;;5039575;28;20073;-79
2023/04/02 03:36:05;;;;;;;11.23;4.57;;;;;;;;;;5037846;28;20029;-80
2023/04/02 03:38:40;;;;;;;11.10;3.40;;;;;;;;;;5034088;28;20037;-79
2023/04/02 03:41:20;;;;;;;7.75;3.28;;;;;;;;;;5034448;28;20129;-79
2023/04/02 03:43:53;;;;;;;11.57;4.78;;;;;;;;;;5033788;28;20033;-79
2023/04/02 03:46:38;;;;;;;10.50;3.40;;;;;;;;;;5037941;28;20041;-79
2023/04/02 03:49:19;;;;;;;8.35;3.65;;;;;;;;;;5034159;28;20065;-79
2023/04/02 03:52:10;;;;;;;10.68;4.55;;;;;;;;;;5028148;28;20087;-79
2023/04/02 03:54:43;;;;;;;9.95;4.05;;;;;;;;;;5036461;28;20092;-79
2023/04/02 03:57:31;;;;;;;15.65;4.25;;;;;;;;;;5039677;28;20029;-80
2023/04/02 04:00:08;;;;;;;8.63;4.07;;;;;;;;;;5036959;28;20037;-79
2023/04/02 04:02:44;;;;;;;13.75;3.70;;;;;;;;;;5036408;28;20041;-79
2023/04/02 04:05:51;;;;;;;12.60;4.00;;;;;;;;;;5052095;28;20124;-79
2023/04/02 04:08:33;;;;;;;11.55;3.95;;;;;;;;;;5027290;28;20088;-79
2023/04/02 04:11:09;;;;;;;8.60;3.97;;;;;;;;;;5024636;28;20049;-79
2023/04/02 04:13:53;;;;;;;8.77;3.90;;;;;;;;;;5036743;28;20037;-79
2023/04/02 04:16:34;;;;;;;14.07;4.03;;;;;;;;;;5037474;28;20472;-79
2023/04/02 04:19:37;;;;;;;11.75;3.67;;;;;;;;;;5030321;28;20448;-79
2023/04/02 04:22:36;;;;;;;10.18;4.38;;;;;;;;;;5013555;28;20041;-79
2023/04/02 04:25:29;;;;;;;13.77;4.20;;;;;;;;;;5039721;28;20088;-79
2023/04/02 04:28:09;;;;;;;12.52;3.88;;;;;;;;;;5034169;28;20112;-79
2023/04/02 04:30:50;;;;;;;9.98;4.05;;;;;;;;;;5041240;28;20037;-79
2023/04/02 04:33:23;;;;;;;18.30;4.35;;;;;;;;;;5025026;28;20041;-79
2023/04/02 04:36:01;;;;;;;7.30;3.28;;;;;;;;;;5037763;28;20047;-79
2023/04/02 04:38:43;;;;;;;9.70;3.65;;;;;;;;;;5021795;28;20091;-79
2023/04/02 04:41:17;;;;;;;11.07;3.30;;;;;;;;;;5041816;28;20113;-79
2023/04/02 04:43:51;;;;;;;12.43;3.58;;;;;;;;;;5045209;28;20408;-79
2023/04/02 04:46:32;;;;;;;13.73;2.92;;;;;;;;;;5049210;28;20029;-79
2023/04/02 04:49:25;;;;;;;8.18;3.70;;;;;;;;;;5037843;28;20064;-79
2023/04/02 04:52:05;;;;;;;8.55;3.45;;;;;;;;;;5047929;28;20111;-79
2023/04/02 04:54:37;;;;;;;13.52;3.17;;;;;;;;;;5042984;28;20045;-79
2023/04/02 04:57:36;;;;;;;25.23;4.40;;;;;;;;;;5039661;28;20076;-79
2023/04/02 05:00:16;;;;;;;12.65;4.30;;;;;;;;;;5037148;28;20069;-79
2023/04/02 05:02:56;;;;;;;8.07;3.35;;;;;;;;;;5033995;28;20049;-79
2023/04/02 05:05:34;;;;;;;9.20;3.28;;;;;;;;;;5032177;28;20033;-79
2023/04/02 05:08:14;;;;;;;15.93;4.35;;;;;;;;;;5042462;28;20044;-79
2023/04/02 05:10:56;;;;;;;17.27;4.40;;;;;;;;;;5048186;28;20033;-79
2023/04/02 05:13:34;;;;;;;11.40;3.38;;;;;;;;;;5030918;28;20041;-79
2023/04/02 05:16:42;;;;;;;10.93;4.15;;;;;;;;;;5041627;28;20119;-79
2023/04/02 05:19:24;;;;;;;15.45;3.70;;;;;;;;;;5034318;28;20079;-79
2023/04/02 05:22:01;;;;;;;5.85;3.33;;;;;;;;;;5041002;28;20485;-79
2023/04/02 05:24:46;;;;;;;10.48;3.65;;;;;;;;;;5040559;28;20092;-79
2023/04/02 05:27:27;;;;;;;9.00;3.25;;;;;;;;;;5032560;28;20409;-79
2023/04/02 05:30:08;;;;;;;13.32;4.22;;;;;;;;;;5037658;28;20099;-79
2023/04/02 05:32:43;;;;;;;13.63;3.10;;;;;;;;;;5023496;28;20049;-79
2023/04/02 05:35:19;;;;;;;16.55;3.33;;;;;;;;;;5040462;28;20041;-79
2023/04/02 05:37:51;;;;;;;18.35;3.08;;;;;;;;;;5043369;28;20033;-79
2023/04/02 05:40:33;;;;;;;7.88;2.40;;;;;;;;;;5039081;28;20492;-79
2023/04/02 05:43:06;;;;;;;11.55;2.72;;;;;;;;;;5039234;28;20124;-79
2023/04/02 05:45:40;;;;;;;6.90;2.90;;;;;;;;;;5036801;28;20056;-79
2023/04/02 05:48:22;;;;;;;10.45;3.05;;;;;;;;;;5039772;28;20290;-79
2023/04/02 05:50:57;;;;;;;14.60;3.55;;;;;;;;;;5023524;28;20067;-79
2023/04/02 05:53:41;;;;;;;9.82;3.17;;;;;;;;;;5028733;28;20551;-79
2023/04/02 05:56:23;;;;;;;11.55;3.17;;;;;;;;;;5033750;28;20041;-79
2023/04/02 05:59:00;;;;;;;16.98;3.83;;;;;;;;;;5046268;28;20040;-79
2023/04/02 06:01:38;;;;;;;8.35;3.10;;;;;;;;;;5043874;28;20036;-79
2023/04/02 06:04:22;;;;;;;17.92;3.72;;;;;;;;;;5038962;28;20045;-79
2023/04/02 06:07:11;;;;;;;20.10;4.13;;;;;;;;;;5044295;28;20426;-79
2023/04/02 06:09:57;;;;;;;8.68;3.50;;;;;;;;;;5036763;28;20051;-79
2023/04/02 06:12:37;;;;;;;20.83;4.13;;;;;;;;;;5033284;28;20045;-79
2023/04/02 06:15:09;;;;;;;11.18;3.42;;;;;;;;;;5041340;28;20042;-79
2023/04/02 06:17:46;;;;;;;23.67;3.97;;;;;;;;;;5023180;28;20499;-79
2023/04/02 06:20:21;;;;;;;15.00;4.00;;;;;;;;;;5040084;28;20041;-79
2023/04/02 06:23:00;;;;;;;9.85;3.83;;;;;;;;;;5038304;28;20450;-79
2023/04/02 06:25:36;;;;;;;12.60;4.53;;;;;;;;;;5033296;28;20131;-79
2023/04/02 06:28:14;;;;;;;13.15;3.58;;;;;;;;;;5035692;28;20696;-79
2023/04/02 06:30:46;;;;;;;16.70;3.50;;;;;;;;;;5040308;28;20064;-79
2023/04/02 06:33:19;;;;;;;15.25;3.58;;;;;;;;;;5036088;28;20033;-79
2023/04/02 06:35:46;;;;;;;6.90;2.92;;;;;;;;;;5037772;28;20392;-79
2023/04/02 06:38:25;;;;;;;13.50;3.55;;;;;;;;;;5024335;28;20022;-79
2023/04/02 06:41:05;;;;;;;16.75;3.03;;;;;;;;;;5034765;28;20099;-79
2023/04/02 06:43:40;;;;;;;8.52;3.08;;;;;;;;;;5036569;28;20117;-79
2023/04/02 06:46:18;;;;;;;10.02;3.00;;;;;;;;;;5033049;28;20045;-79
2023/04/02 06:48:51;;;;;;;15.13;3.20;;;;;;;;;;5036440;28;20040;-79
2023/04/02 06:51:25;;;;;;;13.98;3.40;;;;;;;;;;5047793;28;20052;-79
2023/04/02 06:53:50;;;;;;;7.78;2.90;;;;;;;;;;5034907;28;20048;-79
2023/04/02 06:56:43;;;;;;;7.60;3.03;;;;;;;;;;5037220;28;20041;-79
2023/04/02 06:59:11;;;;;;;10.55;3.08;;;;;;;;;;5036467;28;20052;-79
2023/04/02 07:02:10;;;;;;;11.15;2.97;;;;;;;;;;5036997;28;20461;-79
2023/04/02 07:04:36;;;;;;;5.90;2.85;;;;;;;;;;5035408;28;20043;-79
2023/04/02 07:07:08;;;;;;;7.68;2.97;;;;;;;;;;5035508;28;20395;-79
2023/04/02 07:09:41;;;;;;;10.68;3.00;;;;;;;;;;5028858;28;20040;-79
2023/04/02 07:12:23;;;;;;;9.83;3.20;;;;;;;;;;5033245;28;20040;-80
2023/04/02 07:14:55;;;;;;;11.40;3.38;;;;;;;;;;5034314;28;20044;-80
2023/04/02 07:17:28;;;;;;;9.73;3.28;;;;;;;;;;5047823;28;20037;-80
2023/04/02 07:19:53;;;;;;;14.43;3.78;;;;;;;;;;5041239;28;20045;-80
2023/04/02 07:22:25;;;;;;;14.65;3.10;;;;;;;;;;5049506;28;20163;-80
2023/04/02 07:24:58;;;;;;;6.80;3.17;;;;;;;;;;5034599;28;20090;-80
2023/04/02 07:27:23;;;;;;;7.07;4.03;;;;;;;;;;5039716;28;20091;-80
2023/04/02 07:29:55;;;;;;;11.52;3.90;;;;;;;;;;5042611;28;20534;-79
2023/04/02 07:32:28;;;;;;;8.32;4.28;;;;;;;;;;5041210;28;20049;-80
2023/04/02 07:34:53;;;;;;;13.65;5.85;;;;;;;;;;5039352;28;20485;-79
2023/04/02 07:37:25;;;;;;;13.50;5.57;;;;;;;;;;5032762;28;20041;-79
2023/04/02 07:39:57;;;;;;;20.33;5.18;;;;;;;;;;5036617;28;20125;-79
2023/04/02 07:42:22;;;;;;;16.88;5.70;;;;;;;;;;5041308;28;20065;-79
2023/04/02 07:44:55;;;;;;;13.00;4.50;;;;;;;;;;5044952;28;20126;-80
2023/04/02 07:47:27;;;;;;;18.50;5.00;;;;;;;;;;5047884;28;20052;-80
2023/04/02 07:49:53;;;;;;;12.73;4.95;;;;;;;;;;5043600;28;20112;-80
2023/04/02 07:52:25;;;;;;;17.20;5.63;;;;;;;;;;5034784;28;20388;-79
2023/04/02 07:54:58;;;;;;;12.55;5.38;;;;;;;;;;5036478;28;20559;-79
2023/04/02 07:57:23;;;;;;;11.63;6.13;;;;;;;;;;5046734;28;20056;-78
2023/04/02 07:59:55;;;;;;;15.55;6.15;;;;;;;;;;5039473;28;20021;-80
2023/04/02 08:02:28;;;;;;;10.40;5.10;;;;;;;;;;5039646;28;20051;-81
2023/04/02 08:04:53;;;;;;;10.80;5.15;;;;;;;;;;5033859;28;20037;-80
2023/04/02 08:07:34;;;;;;;13.65;5.57;;;;;;;;;;5031395;28;20052;-80
2023/04/02 08:10:08;;;;;;;16.75;5.38;;;;;;;;;;5045855;28;20044;-82
2023/04/02 08:12:33;;;;;;;9.65;4.85;;;;;;;;;;5047338;28;20040;-81
2023/04/02 08:15:06;;;;;;;10.40;5.03;;;;;;;;;;5044915;28;20283;-81
2023/04/02 08:17:38;;;;;;;12.52;5.05;;;;;;;;;;5045393;28;21072;-82
2023/04/02 08:20:05;;;;;;;12.35;4.63;;;;;;;;;;5040036;28;20359;-81
2023/04/02 08:22:37;;;;;;;13.50;4.18;;;;;;;;;;5038472;28;20037;-82
2023/04/02 08:25:10;;;;;;;9.57;3.28;;;;;;;;;;5046409;28;20038;-81
2023/04/02 08:27:35;;;;;;;8.38;3.60;;;;;;;;;;5033281;28;20033;-83
2023/04/02 08:30:07;;;;;;;8.35;3.40;;;;;;;;;;5037402;28;20045;-80
2023/04/02 08:32:40;;;;;;;6.20;3.40;;;;;;;;;;5048334;28;20036;-82
2023/04/02 08:35:07;;;;;;;5.63;3.20;;;;;;;;;;5033241;28;20103;-82
2023/04/02 08:37:38;;;;;;;6.40;3.78;;;;;;;;;;5040719;28;20036;-82
2023/04/02 08:40:24;;;;;;;6.82;3.50;;;;;;;;;;5024184;28;20037;-82
2023/04/02 08:43:20;;;;;;;6.65;2.97;;;;;;;;;;5031118;28;20087;-82
2023/04/02 08:45:58;;;;;;;5.95;3.05;;;;;;;;;;5043900;28;20730;-80
2023/04/02 08:48:31;;;;;;;4.78;2.95;;;;;;;;;;5035926;28;20098;-81
2023/04/02 08:51:04;;;;;;;12.20;3.38;;;;;;;;;;5036497;28;20037;-82
2023/04/02 08:53:41;;;;;;;5.07;2.97;;;;;;;;;;5034218;28;20385;-83
2023/04/02 08:56:25;;;;;;;8.63;3.10;;;;;;;;;;5037502;28;20048;-82
2023/04/02 08:58:59;;;;;;;8.90;2.83;;;;;;;;;;5043164;28;20064;-82
2023/04/02 09:01:51;;;;;;;9.75;3.15;;;;;;;;;;5033759;28;20051;-82
2023/04/02 09:04:26;;;;;;;5.45;2.50;;;;;;;;;;5051723;28;20130;-82
2023/04/02 09:06:59;;;;;;;6.65;3.10;;;;;;;;;;5046570;28;20044;-82
2023/04/02 09:09:26;;;;;;;8.25;2.50;;;;;;;;;;5046248;28;20485;-82
2023/04/02 09:12:03;;;;;;;4.15;2.28;;;;;;;;;;5050874;28;20461;-82
2023/04/02 09:15:06;;;;;;;6.05;2.72;;;;;;;;;;5045942;28;21021;-81
2023/04/02 09:17:37;;;;;;;5.15;2.35;;;;;;;;;;5026896;28;20388;-82
2023/04/02 09:20:16;;;;;;;5.05;2.45;;;;;;;;;;5042530;28;20052;-81
2023/04/02 09:22:49;;;;;;;4.35;2.38;;;;;;;;;;5045508;28;20037;-81
2023/04/02 09:25:28;;;;;;;7.93;2.67;;;;;;;;;;5043982;28;20044;-81
2023/04/02 09:28:02;;;;;;;4.50;2.35;;;;;;;;;;5030128;28;20036;-81
2023/04/02 09:30:40;;;;;;;4.50;1.85;;;;;;;;;;5031849;28;20037;-81
2023/04/02 09:33:12;;;;;;;4.70;1.95;;;;;;;;;;5040020;28;20077;-81
2023/04/02 09:35:50;;;;;;;2.95;1.33;;;;;;;;;;5040595;28;20488;-81
2023/04/02 09:38:34;;;;;;;2.30;1.27;;;;;;;;;;5039305;28;20420;-82
2023/04/02 09:41:18;;;;;;;2.33;1.30;;;;;;;;;;5048685;28;20159;-81
2023/04/02 09:43:50;;;;;;;4.30;1.60;;;;;;;;;;5047509;28;20029;-82
2023/04/02 09:46:23;;;;;;;3.47;1.20;;;;;;;;;;5053325;28;20040;-81
2023/04/02 09:48:59;;;;;;;2.67;1.13;;;;;;;;;;5053673;28;20033;-82
2023/04/02 09:51:34;;;;;;;2.15;1.38;;;;;;;;;;5046497;28;20049;-81
2023/04/02 09:54:10;;;;;;;2.70;1.20;;;;;;;;;;5051064;28;20131;-81
2023/04/02 09:57:02;;;;;;;2.72;1.40;;;;;;;;;;5026438;28;20030;-81
2023/04/02 09:59:34;;;;;;;7.88;1.23;;;;;;;;;;5037218;28;20464;-82
2023/04/02 10:02:23;;;;;;;3.80;1.38;;;;;;;;;;5036795;28;20045;-81
2023/04/02 10:04:54;;;;;;;4.07;1.45;;;;;;;;;;5009397;28;20041;-82
2023/04/02 10:07:29;;;;;;;4.00;1.33;;;;;;;;;;5018448;28;20070;-81
2023/04/02 10:10:06;;;;;;;3.35;1.20;;;;;;;;;;5021926;28;20042;-82
2023/04/02 10:12:40;;;;;;;3.35;1.30;;;;;;;;;;5033994;28;20065;-82
2023/04/02 10:15:06;;;;;;;;;;;;;;;;;;5023617;28;20120;-82
2023/04/02 10:17:41;;;;;;;2.38;1.20;;;;;;;;;;5014645;28;20004;-83
2023/04/02 10:20:18;;;;;;;4.53;1.13;;;;;;;;;;5015204;28;20096;-81
2023/04/02 10:22:51;;;;;;;3.10;1.33;;;;;;;;;;5022327;28;20084;-81
2023/04/02 10:25:26;;;;;;;5.45;1.50;;;;;;;;;;5021612;28;20084;-82
2023/04/02 10:28:11;;;;;;;3.78;1.40;;;;;;;;;;5027343;28;20095;-82
2023/04/02 10:30:50;;;;;;;6.00;1.60;;;;;;;;;;5028835;28;20037;-82
2023/04/02 10:33:41;;;;;;;3.55;1.27;;;;;;;;;;5020539;28;20050;-81
2023/04/02 10:36:29;;;;;;;7.05;2.80;;;;;;;;;;5023003;28;20048;-81
2023/04/02 10:39:17;;;;;;;7.90;2.47;;;;;;;;;;5019393;28;20046;-80
2023/04/02 10:41:58;;;;;;;10.52;3.13;;;;;;;;;;5005019;28;20041;-80
2023/04/02 10:44:40;;;;;;;8.25;2.85;;;;;;;;;;5015447;28;20431;-80
2023/04/02 10:47:39;;;;;;;13.85;3.65;;;;;;;;;;5025431;28;20099;-80
2023/04/02 10:50:50;;;;;;;13.63;3.10;;;;;;;;;;5023275;28;20041;-80
2023/04/02 10:53:53;;;;;;;14.13;5.22;;;;;;;;;;5032679;28;20081;-80
2023/04/02 10:56:25;;;;;;;9.15;3.33;;;;;;;;;;5018042;28;20493;-80
2023/04/02 10:59:02;;;;;;;13.98;7.50;;;;;;;;;;5017308;28;20547;-80
2023/04/02 11:01:35;;;;;;;12.57;4.20;;;;;;;;;;5017405;28;20050;-80
2023/04/02 11:04:17;;;;;;;10.48;3.03;;;;;;;;;;5032420;28;20068;-80
2023/04/02 11:06:52;;;;;;;11.65;4.43;;;;;;;;;;5046076;28;20045;-80
2023/04/02 11:09:28;;;;;;;10.85;4.20;;;;;;;;;;5034995;28;20548;-80
2023/04/02 11:12:02;;;;;;;7.57;3.00;;;;;;;;;;5040026;28;20041;-81
2023/04/02 11:14:35;;;;;;;9.43;4.07;;;;;;;;;;5032152;28;20052;-80
2023/04/02 11:17:03;;;;;;;10.52;3.28;;;;;;;;;;5036735;28;20067;-80
2023/04/02 11:19:40;;;;;;;11.80;3.67;;;;;;;;;;5032245;28;20033;-81
2023/04/02 11:22:24;;;;;;;8.63;2.95;;;;;;;;;;5042073;28;20120;-81
2023/04/02 11:24:59;;;;;;;12.13;3.47;;;;;;;;;;5033651;28;20041;-82
2023/04/02 11:27:35;;;;;;;7.63;3.22;;;;;;;;;;5031348;28;20029;-81
2023/04/02 11:30:21;;;;;;;6.25;2.63;;;;;;;;;;5038532;28;20087;-81
2023/04/02 11:33:34;;;;;;;8.13;2.83;;;;;;;;;;5043734;28;20044;-81
2023/04/02 11:36:06;;;;;;;8.45;3.58;;;;;;;;;;5033589;28;20033;-81
2023/04/02 11:38:48;;;;;;;10.45;3.17;;;;;;;;;;5034977;28;20052;-81
2023/04/02 11:41:20;;;;;;;10.00;4.05;;;;;;;;;;5031486;28;20432;-81
2023/04/02 11:43:59;;;;;;;14.43;4.77;;;;;;;;;;5033097;28;20359;-81
2023/04/02 11:46:34;;;;;;;14.40;3.95;;;;;;;;;;5047095;28;20112;-81
2023/04/02 11:49:38;;;;;;;10.63;3.45;;;;;;;;;;5041737;28;20377;-81
2023/04/02 11:52:10;;;;;;;12.05;4.00;;;;;;;;;;5043462;28;20091;-81
2023/04/02 11:54:43;;;;;;;16.17;4.13;;;;;;;;;;5052353;28;20076;-81
2023/04/02 11:57:29;;;;;;;16.38;3.38;;;;;;;;;;5043201;28;20497;-79
2023/04/02 12:00:12;;;;;;;8.98;3.10;;;;;;;;;;5043467;28;20561;-81
2023/04/02 12:03:10;;;;;;;16.98;3.38;;;;;;;;;;5034110;28;20057;-82
2023/04/02 12:05:49;;;;;;;8.68;3.10;;;;;;;;;;5039544;28;20060;-81
2023/04/02 12:08:39;;;;;;;11.23;2.88;;;;;;;;;;5040777;28;20044;-81
2023/04/02 12:11:13;;;;;;;9.60;3.00;;;;;;;;;;5051705;28;20040;-82
2023/04/02 12:13:38;;;;;;;9.40;2.80;;;;;;;;;;5044101;28;20485;-82
2023/04/02 12:16:11;;;;;;;5.57;2.38;;;;;;;;;;5043783;28;20044;-81
2023/04/02 12:18:53;;;;;;;6.80;2.47;;;;;;;;;;5044408;28;20048;-81
2023/04/02 12:21:27;;;;;;;11.93;2.50;;;;;;;;;;5029412;28;20068;-81
2023/04/02 12:24:02;;;;;;;8.02;2.42;;;;;;;;;;5039065;28;20507;-82
2023/04/02 12:26:45;;;;;;;4.28;2.40;;;;;;;;;;5042876;28;20048;-82
2023/04/02 12:29:27;;;;;;;8.82;1.95;;;;;;;;;;5039459;28;20034;-81
2023/04/02 12:32:02;;;;;;;6.90;2.28;;;;;;;;;;5038134;28;20111;-82
2023/04/02 12:34:34;;;;;;;5.28;2.00;;;;;;;;;;5039978;28;20099;-82
2023/04/02 12:37:11;;;;;;;7.43;1.77;;;;;;;;;;5034404;28;20045;-82
2023/04/02 12:39:51;;;;;;;6.68;1.85;;;;;;;;;;5039330;28;20041;-82
2023/04/02 12:42:36;;;;;;;7.63;1.92;;;;;;;;;;5034011;28;20033;-81
2023/04/02 12:45:27;;;;;;;15.60;2.55;;;;;;;;;;5040187;28;20048;-82
2023/04/02 12:48:00;;;;;;;4.60;1.92;;;;;;;;;;5037399;28;20048;-82
2023/04/02 12:50:32;;;;;;;6.88;2.17;;;;;;;;;;5042480;28;20044;-82
2023/04/02 12:52:59;;;;;;;8.55;2.20;;;;;;;;;;5036916;28;20040;-82
2023/04/02 12:55:32;;;;;;;6.63;2.55;;;;;;;;;;5041263;28;20529;-82
2023/04/02 12:58:41;;;;;;;7.28;2.50;;;;;;;;;;5037267;28;20272;-80
2023/04/02 13:01:35;;;;;;;3.10;1.63;;;;;;;;;;5042357;28;20091;-80
2023/04/02 13:04:13;;;;;;;5.18;2.05;;;;;;;;;;5020582;28;20049;-81
2023/04/02 13:06:46;;;;;;;7.32;1.98;;;;;;;;;;5041492;28;20407;-81
2023/04/02 13:09:35;;;;;;;5.00;2.38;;;;;;;;;;5037517;28;20044;-82
2023/04/02 13:12:07;;;;;;;4.72;2.33;;;;;;;;;;5042935;28;20088;-83
2023/04/02 13:14:40;;;;;;;6.80;2.50;;;;;;;;;;5033121;28;20052;-82
2023/04/02 13:17:44;;;;;;;5.88;2.53;;;;;;;;;;5042448;28;20116;-82
2023/04/02 13:20:39;;;;;;;4.90;1.92;;;;;;;;;;5036150;28;20033;-82
2023/04/02 13:23:37;;;;;;;7.55;2.30;;;;;;;;;;5029138;28;20124;-82
2023/04/02 13:26:23;;;;;;;9.20;2.40;;;;;;;;;;5032702;28;20045;-83
2023/04/02 13:29:32;;;;;;;9.23;2.05;;;;;;;;;;5031980;28;20037;-82
2023/04/02 13:32:08;;;;;;;15.05;2.47;;;;;;;;;;4980855;28;20161;-82
2023/04/02 13:34:40;;;;;;;7.57;2.20;;;;;;;;;;5028092;28;20144;-82
2023/04/02 13:37:12;;;;;;;6.00;2.40;;;;;;;;;;5039590;28;20034;-81
2023/04/02 13:39:37;;;;;;;7.95;2.47;;;;;;;;;;5036163;28;20041;-82
2023/04/02 13:42:10;;;;;;;9.50;2.80;;;;;;;;;;5037152;28;20044;-81
2023/04/02 13:44:42;;;;;;;8.93;2.70;;;;;;;;;;5046761;28;20358;-83
2023/04/02 13:47:20;;;;;;;8.60;3.20;;;;;;;;;;5043518;28;20130;-82
2023/04/02 13:49:52;;;;;;;10.98;2.65;;;;;;;;;;5041755;28;20412;-82
2023/04/02 13:52:17;;;;;;;7.35;2.55;;;;;;;;;;5034505;28;20382;-82
2023/04/02 13:54:54;;;;;;;8.57;2.80;;;;;;;;;;5032755;28;20063;-82
2023/04/02 13:57:26;;;;;;;8.93;2.30;;;;;;;;;;5041922;28;20071;-82
2023/04/02 13:59:51;;;;;;;7.30;2.65;;;;;;;;;;5038467;28;20045;-82
2023/04/02 14:02:27;;;;;;;6.60;2.38;;;;;;;;;;5034616;28;20029;-81
2023/04/02 14:05:35;;;;;;;8.55;2.65;;;;;;;;;;5036651;28;20405;-82
2023/04/02 14:08:25;;;;;;;10.45;2.95;;;;;;;;;;5034855;28;20049;-82
2023/04/02 14:11:19;;;;;;;8.68;2.42;;;;;;;;;;5038415;28;20084;-82
2023/04/02 14:13:51;;;;;;;9.20;2.60;;;;;;;;;;5037018;28;20102;-82
2023/04/02 14:16:30;;;;;;;5.65;2.50;;;;;;;;;;5034113;28;20041;-81
2023/04/02 14:19:39;;;;;;;10.75;2.80;;;;;;;;;;5033240;28;20045;-82
2023/04/02 14:22:38;;;;;;;7.68;2.65;;;;;;;;;;5037098;28;20049;-82
2023/04/02 14:25:22;;;;;;;5.28;2.58;;;;;;;;;;5046671;28;20025;-81
2023/04/02 14:27:55;;;;;;;8.38;2.60;;;;;;;;;;5034297;28;20045;-81
2023/04/02 14:30:58;;;;;;;5.53;2.30;;;;;;;;;;5034711;28;20042;-82
2023/04/02 14:33:49;;;;;;;7.97;2.20;;;;;;;;;;5017953;28;20405;-82
2023/04/02 14:36:46;;;;;;;9.07;2.92;;;;;;;;;;5038552;28;20401;-81
2023/04/02 14:39:24;;;;;;;5.28;2.30;;;;;;;;;;5034827;28;20116;-82
2023/04/02 14:42:44;;;;;;;5.80;2.90;;;;;;;;;;5036118;28;20033;-82
2023/04/02 14:45:24;;;;;;;9.05;3.05;;;;;;;;;;5017831;28;20053;-82
2023/04/02 14:48:01;;;;;;;7.38;2.67;;;;;;;;;;5034419;28;20037;-82
2023/04/02 14:50:38;;;;;;;6.03;2.20;;;;;;;;;;5035180;28;20039;-82
2023/04/02 14:53:36;;;;;;;11.98;3.20;;;;;;;;;;5040815;28;20041;-81
2023/04/02 14:56:09;;;;;;;6.32;2.63;;;;;;;;;;5032276;28;20152;-81
2023/04/02 14:58:48;;;;;;;8.65;2.38;;;;;;;;;;5035525;28;20048;-81
2023/04/02 15:01:51;;;;;;;4.80;2.40;;;;;;;;;;5026925;28;20044;-82
2023/04/02 15:04:26;;;;;;;5.90;2.08;;;;;;;;;;5029310;28;20056;-81
2023/04/02 15:07:05;;;;;;;11.23;2.63;;;;;;;;;;5030327;28;20044;-82
2023/04/02 15:09:41;;;;;;;7.95;2.60;;;;;;;;;;5035135;28;20070;-81
2023/04/02 15:12:21;;;;;;;8.88;3.10;;;;;;;;;;5042102;28;20040;-81
2023/04/02 15:14:58;;;;;;;7.25;2.33;;;;;;;;;;5033403;28;20083;-81
2023/04/02 15:17:30;;;;;;;10.88;2.20;;;;;;;;;;5030657;28;20041;-81
2023/04/02 15:20:12;;;;;;;8.60;2.70;;;;;;;;;;5027496;28;20633;-81
2023/04/02 15:23:09;;;;;;;6.85;1.83;;;;;;;;;;5027901;28;20120;-81
2023/04/02 15:26:18;;;;;;;5.57;1.92;;;;;;;;;;5044477;28;20040;-82
2023/04/02 15:29:05;;;;;;;6.68;1.98;;;;;;;;;;5038174;28;20029;-81
2023/04/02 15:31:39;;;;;;;4.68;1.77;;;;;;;;;;5038616;28;20033;-81
2023/04/02 15:34:29;;;;;;;;;;;;;;;;;;5039760;28;20370;-81
2023/04/02 15:37:20;;;;;;;7.53;1.85;;;;;;;;;;5037301;28;19923;-81
2023/04/02 15:40:19;;;;;;;6.85;2.00;;;;;;;;;;5039866;28;20393;-81
2023/04/02 15:43:10;;;;;;;10.50;2.30;;;;;;;;;;5031904;28;20484;-81
2023/04/02 15:45:50;;;;;;;6.22;2.08;;;;;;;;;;5036760;28;20033;-81
2023/04/02 15:48:59;;;;;;;7.85;1.85;;;;;;;;;;5036032;28;20038;-81
2023/04/02 15:51:36;;;;;;;5.57;1.60;;;;;;;;;;5043671;28;20041;-80